Time;durP1;ratioP1;P1;durP2;ratioP2;P2;SDS_P1;SDS_P2;PMS_P1;PMS_P2;Temp;Humidity;BMP_temperature;BMP_pressure;BME280_temperature;BME280_humidity;BME280_pressure;Samples;Min_cycle;Max_cycle;Signal;HPM_P1;HPM_P2
2022/06/06 00:01:21;;;;;;;6.85;2.85;;;14.60;69.60;;;;;;4105615;28;20146;-83
2022/06/06 00:03:23;;;;;;;6.65;2.97;;;14.60;69.60;;;;;;4121192;28;20140;-81
2022/06/06 00:05:26;;;;;;;5.40;2.70;;;14.70;69.80;;;;;;4111047;28;20077;-84
2022/06/06 00:07:29;;;;;;;5.97;2.35;;;14.60;69.50;;;;;;4106446;28;20048;-84
2022/06/06 00:09:30;;;;;;;6.07;2.78;;;14.70;69.60;;;;;;4112026;28;20034;-83
2022/06/06 00:11:33;;;;;;;7.38;3.20;;;14.70;69.40;;;;;;4114633;28;20062;-82
2022/06/06 00:13:33;;;;;;;3.47;2.20;;;14.70;69.70;;;;;;4125358;28;20043;-84
2022/06/06 00:15:34;;;;;;;9.23;2.75;;;14.80;69.30;;;;;;4113368;28;20560;-84
2022/06/06 00:17:36;;;;;;;7.53;2.42;;;14.80;69.40;;;;;;4107198;28;20043;-84
2022/06/06 00:19:37;;;;;;;6.20;2.67;;;14.80;69.30;;;;;;4111694;28;20077;-83
2022/06/06 00:21:39;;;;;;;7.45;2.40;;;14.80;69.50;;;;;;4109182;28;20026;-84
2022/06/06 00:23:40;;;;;;;7.40;3.08;;;14.70;69.80;;;;;;4112379;28;20039;-83
2022/06/06 00:25:40;;;;;;;8.32;2.17;;;14.80;70.00;;;;;;4112060;28;20036;-84
2022/06/06 00:27:41;;;;;;;9.02;2.30;;;14.80;69.60;;;;;;4108504;28;20105;-83
2022/06/06 00:29:42;;;;;;;5.88;2.13;;;14.90;69.80;;;;;;4107550;28;20131;-82
2022/06/06 00:36:21;;;;;;;4.80;2.50;;;14.90;70.00;;;;;;4109020;28;20043;-84
2022/06/06 00:38:22;;;;;;;5.95;2.63;;;14.90;70.00;;;;;;4110603;28;20035;-85
2022/06/06 00:40:25;;;;;;;5.47;2.53;;;14.90;70.60;;;;;;4111813;28;20031;-81
2022/06/06 00:42:32;;;;;;;5.85;2.40;;;14.90;70.20;;;;;;4105135;28;20130;-82
2022/06/06 00:44:34;;;;;;;8.85;2.83;;;14.90;70.80;;;;;;4102092;28;20484;-83
2022/06/06 00:47:13;;;;;;;10.35;3.00;;;14.90;71.10;;;;;;4106740;28;20030;-82
2022/06/06 00:49:36;;;;;;;8.45;2.65;;;14.80;71.60;;;;;;4114172;28;20068;-81
2022/06/06 00:51:37;;;;;;;7.07;2.53;;;14.80;71.90;;;;;;4108715;28;20059;-81
2022/06/06 00:53:46;;;;;;;6.03;2.45;;;14.90;71.60;;;;;;4108853;28;20027;-82
2022/06/06 00:55:53;;;;;;;6.75;2.88;;;14.80;71.60;;;;;;4110630;28;20043;-82
2022/06/06 00:58:02;;;;;;;6.53;3.47;;;14.80;72.40;;;;;;4112275;28;20700;-82
2022/06/06 01:00:08;;;;;;;5.82;2.65;;;14.80;72.90;;;;;;4106784;28;20073;-81
2022/06/06 01:02:11;;;;;;;6.82;2.80;;;14.80;72.50;;;;;;4110708;28;20030;-84
2022/06/06 01:04:15;;;;;;;8.65;2.97;;;14.70;72.90;;;;;;4104769;28;20039;-82
2022/06/06 01:06:18;;;;;;;8.75;2.67;;;14.70;74.10;;;;;;4109410;28;20106;-82
2022/06/06 01:08:20;;;;;;;5.72;2.50;;;14.70;74.10;;;;;;4106178;28;20027;-81
2022/06/06 01:10:22;;;;;;;8.93;3.40;;;14.70;73.70;;;;;;4109699;28;20031;-82
2022/06/06 01:12:23;;;;;;;7.78;3.20;;;14.70;74.10;;;;;;4113767;28;20078;-82
2022/06/06 01:14:26;;;;;;;7.60;3.13;;;14.70;74.30;;;;;;4106920;28;20031;-83
2022/06/06 01:16:42;;;;;;;9.65;3.70;;;14.60;74.50;;;;;;4113830;28;20500;-83
2022/06/06 01:19:08;;;;;;;13.40;3.72;;;14.60;74.50;;;;;;4110099;28;20576;-83
2022/06/06 01:21:51;;;;;;;7.78;2.88;;;14.60;75.60;;;;;;4110071;28;20453;-84
2022/06/06 01:24:27;;;;;;;11.80;3.65;;;14.60;76.00;;;;;;4075357;28;20344;-82
2022/06/06 01:27:05;;;;;;;7.85;3.85;;;14.50;76.70;;;;;;4124732;28;20031;-83
2022/06/06 01:29:18;;;;;;;11.07;3.80;;;14.40;76.90;;;;;;4118891;28;20034;-82
2022/06/06 01:31:30;;;;;;;8.00;3.42;;;14.40;76.90;;;;;;4107294;28;20057;-84
2022/06/06 01:33:58;;;;;;;10.43;4.22;;;14.40;77.30;;;;;;4108508;28;20027;-83
2022/06/06 01:36:01;;;;;;;6.32;3.58;;;14.30;78.40;;;;;;4113148;28;20031;-82
2022/06/06 01:38:02;;;;;;;5.43;3.10;;;14.30;78.20;;;;;;4109498;28;20027;-82
2022/06/06 01:40:07;;;;;;;12.75;3.85;;;14.30;78.40;;;;;;4104324;28;20026;-83
2022/06/06 01:42:20;;;;;;;13.45;3.67;;;14.30;78.40;;;;;;4103983;28;20039;-82
2022/06/06 01:44:29;;;;;;;13.15;3.55;;;14.30;79.20;;;;;;4111768;28;20030;-82
2022/06/06 01:46:34;;;;;;;11.98;3.28;;;14.20;79.10;;;;;;4113435;28;20637;-82
2022/06/06 01:48:41;;;;;;;8.70;3.38;;;14.20;78.80;;;;;;4112268;28;20022;-81
2022/06/06 01:50:44;;;;;;;9.77;3.40;;;14.20;79.00;;;;;;4108151;28;20034;-83
2022/06/06 01:52:55;;;;;;;11.85;3.58;;;14.20;79.50;;;;;;4108707;28;20042;-83
2022/06/06 01:54:57;;;;;;;11.25;3.95;;;14.20;79.50;;;;;;4107743;28;20571;-82
2022/06/06 01:57:00;;;;;;;11.68;3.50;;;14.20;79.70;;;;;;4113076;28;20038;-84
2022/06/06 01:59:01;;;;;;;8.07;3.40;;;14.10;80.40;;;;;;4110922;28;20027;-82
2022/06/06 02:01:03;;;;;;;8.95;3.38;;;14.10;80.40;;;;;;4110685;28;20038;-83
2022/06/06 02:03:04;;;;;;;9.40;3.42;;;14.10;80.30;;;;;;4108044;28;20114;-84
2022/06/06 02:05:05;;;;;;;10.77;3.72;;;14.10;80.20;;;;;;4107641;28;20023;-82
2022/06/06 02:07:06;;;;;;;8.68;3.03;;;14.10;80.50;;;;;;4107306;28;20061;-82
2022/06/06 02:09:08;;;;;;;7.30;3.45;;;14.10;80.50;;;;;;4107566;28;20077;-85
2022/06/06 02:11:10;;;;;;;10.37;3.73;;;14.10;80.60;;;;;;4109044;28;20031;-83
2022/06/06 02:13:12;;;;;;;13.50;4.75;;;14.10;81.00;;;;;;4111080;28;20034;-84
2022/06/06 02:15:17;;;;;;;18.30;4.38;;;14.10;80.90;;;;;;4109810;28;20051;-84
2022/06/06 02:17:18;;;;;;;15.15;3.67;;;14.10;81.30;;;;;;4110823;28;20529;-83
2022/06/06 02:19:18;;;;;;;10.13;3.55;;;14.10;81.10;;;;;;4107029;28;20035;-84
2022/06/06 02:21:19;;;;;;;10.85;3.95;;;14.10;81.40;;;;;;4111855;28;20038;-85
2022/06/06 02:23:20;;;;;;;20.23;4.85;;;14.10;81.40;;;;;;4107022;28;20094;-82
2022/06/06 02:25:21;;;;;;;8.20;3.70;;;14.10;81.40;;;;;;4108583;28;20035;-83
2022/06/06 02:27:22;;;;;;;12.18;4.15;;;14.10;81.50;;;;;;4120308;28;20424;-84
2022/06/06 02:29:23;;;;;;;11.30;3.92;;;14.10;81.60;;;;;;4108735;28;20098;-83
2022/06/06 02:31:23;;;;;;;12.57;3.72;;;14.00;81.80;;;;;;4107758;28;20046;-84
2022/06/06 02:33:24;;;;;;;8.40;3.97;;;14.10;81.80;;;;;;4107804;28;20094;-84
2022/06/06 02:35:29;;;;;;;14.60;5.10;;;14.10;81.60;;;;;;4111910;28;20396;-83
2022/06/06 02:37:31;;;;;;;17.95;4.25;;;14.10;81.30;;;;;;4112789;28;20062;-85
2022/06/06 02:39:31;;;;;;;6.22;3.40;;;14.10;81.30;;;;;;4107071;28;20063;-81
2022/06/06 02:41:32;;;;;;;14.40;4.22;;;14.10;80.90;;;;;;4103909;28;20039;-81
2022/06/06 02:43:37;;;;;;;12.40;4.25;;;14.20;81.00;;;;;;4105645;28;20039;-82
2022/06/06 02:45:39;;;;;;;9.57;4.03;;;14.20;80.90;;;;;;4106902;28;20129;-84
2022/06/06 02:47:40;;;;;;;15.00;4.40;;;14.10;81.40;;;;;;4110471;28;20026;-81
2022/06/06 02:49:41;;;;;;;18.08;4.43;;;14.10;82.30;;;;;;4112420;28;20455;-83
2022/06/06 02:51:42;;;;;;;11.32;3.95;;;14.10;82.20;;;;;;4108366;28;20099;-82
2022/06/06 02:53:42;;;;;;;12.40;3.92;;;14.10;82.20;;;;;;4108183;28;20449;-83
2022/06/06 02:55:43;;;;;;;11.50;4.40;;;14.00;82.30;;;;;;4109396;28;20539;-82
2022/06/06 02:57:46;;;;;;;17.88;4.05;;;14.10;82.60;;;;;;4109346;28;20031;-83
2022/06/06 02:59:51;;;;;;;13.43;4.80;;;14.00;82.80;;;;;;4110193;28;20062;-83
2022/06/06 03:01:51;;;;;;;12.25;3.72;;;14.00;83.10;;;;;;4110215;28;20035;-82
2022/06/06 03:03:52;;;;;;;10.48;4.00;;;13.90;83.50;;;;;;4110591;28;21494;-84
2022/06/06 03:06:16;;;;;;;12.48;4.30;;;13.90;83.60;;;;;;4111268;28;20123;-83
2022/06/06 03:08:24;;;;;;;16.00;4.32;;;13.90;83.90;;;;;;4111445;28;20035;-84
2022/06/06 03:10:24;;;;;;;19.70;4.70;;;13.80;84.40;;;;;;4112882;28;20122;-84
2022/06/06 03:12:47;;;;;;;16.77;4.85;;;13.80;84.70;;;;;;4095449;29;20095;-82
2022/06/06 03:15:06;;;;;;;19.00;4.85;;;13.80;84.80;;;;;;4109642;28;20050;-84
2022/06/06 03:22:28;;;;;;;13.93;4.68;;;13.90;85.00;;;;;;4111099;28;20046;-84
2022/06/06 03:24:51;;;;;;;15.20;3.60;;;13.80;85.10;;;;;;4111067;28;20359;-83
2022/06/06 03:27:03;;;;;;;13.73;4.33;;;13.90;85.00;;;;;;4112056;28;20088;-83
2022/06/06 03:29:21;;;;;;;19.23;4.75;;;13.80;85.10;;;;;;4114856;28;20041;-84
2022/06/06 03:31:46;;;;;;;10.70;3.80;;;13.80;85.00;;;;;;4125861;28;20515;-84
2022/06/06 03:34:04;;;;;;;8.93;4.10;;;13.80;84.80;;;;;;4111497;28;20094;-82
2022/06/06 03:36:26;;;;;;;7.70;3.53;;;13.90;84.90;;;;;;4114131;28;20216;-83
2022/06/06 03:38:53;;;;;;;10.77;4.47;;;13.90;84.50;;;;;;4123984;28;20093;-84
2022/06/06 03:41:08;;;;;;;10.18;4.00;;;13.80;85.20;;;;;;4106486;28;20039;-84
2022/06/06 03:43:24;;;;;;;15.25;3.92;;;13.80;84.60;;;;;;4126239;28;20034;-84
2022/06/06 03:46:07;;;;;;;10.68;4.70;;;13.80;84.70;;;;;;4108200;28;20097;-84
2022/06/06 03:48:34;;;;;;;15.10;4.07;;;13.70;84.70;;;;;;4110583;28;20405;-85
2022/06/06 03:50:44;;;;;;;10.27;4.00;;;13.70;84.80;;;;;;4113720;28;20504;-85
2022/06/06 03:52:47;;;;;;;7.03;3.92;;;13.80;84.60;;;;;;4111785;28;20070;-84
2022/06/06 03:55:05;;;;;;;8.27;3.80;;;13.80;84.20;;;;;;4111441;28;20027;-85
2022/06/06 03:57:23;;;;;;;8.75;3.75;;;13.80;84.30;;;;;;4113365;28;20031;-85
2022/06/06 03:59:28;;;;;;;8.60;4.20;;;13.80;84.20;;;;;;4107854;28;20038;-84
2022/06/06 04:01:30;;;;;;;8.95;4.18;;;13.90;84.20;;;;;;4114123;28;20122;-84
2022/06/06 04:03:33;;;;;;;10.77;4.38;;;13.80;84.30;;;;;;4113750;28;20459;-82
2022/06/06 04:05:37;;;;;;;10.93;4.10;;;13.90;84.50;;;;;;4111785;28;20034;-83
2022/06/06 04:07:38;;;;;;;13.52;4.90;;;13.90;84.50;;;;;;4109548;28;20042;-81
2022/06/06 04:09:39;;;;;;;12.32;4.95;;;13.80;84.60;;;;;;4112389;28;20140;-82
2022/06/06 04:12:15;;;;;;;8.32;4.20;;;13.80;84.80;;;;;;4114449;28;20030;-82
2022/06/06 04:14:54;;;;;;;12.43;4.95;;;13.80;84.80;;;;;;4112757;28;20033;-84
2022/06/06 04:17:20;;;;;;;12.25;5.40;;;13.80;85.00;;;;;;4097047;28;20381;-84
2022/06/06 04:19:39;;;;;;;9.13;4.95;;;13.70;84.60;;;;;;4112335;28;20031;-83
2022/06/06 04:22:12;;;;;;;10.07;5.20;;;13.80;85.20;;;;;;4127291;28;20101;-84
2022/06/06 04:24:16;;;;;;;17.67;5.78;;;13.90;85.20;;;;;;4100656;28;20047;-79
2022/06/06 04:26:52;;;;;;;18.73;5.63;;;13.90;85.10;;;;;;4113114;28;20023;-84
2022/06/06 04:29:03;;;;;;;8.60;5.35;;;13.80;85.20;;;;;;4062273;29;20055;-83
2022/06/06 04:31:21;;;;;;;10.93;5.30;;;13.90;85.10;;;;;;4090074;28;20114;-82
2022/06/06 04:33:40;;;;;;;9.68;5.47;;;14.00;85.00;;;;;;4096215;28;20027;-83
2022/06/06 04:35:54;;;;;;;17.83;5.57;;;14.00;85.10;;;;;;4110507;28;20592;-83
2022/06/06 04:38:14;;;;;;;11.35;5.47;;;14.00;84.80;;;;;;4093710;28;20173;-83
2022/06/06 04:40:35;;;;;;;11.95;4.85;;;14.00;84.70;;;;;;4107939;28;20109;-80
2022/06/06 04:42:46;;;;;;;15.55;5.40;;;14.10;84.30;;;;;;4091460;28;20055;-82
2022/06/06 04:45:05;;;;;;;19.52;5.60;;;14.10;84.20;;;;;;4109587;28;20034;-83
2022/06/06 04:47:23;;;;;;;18.95;5.47;;;14.10;84.40;;;;;;4106411;28;20090;-84
2022/06/06 04:49:28;;;;;;;12.93;5.00;;;14.20;84.00;;;;;;4110132;28;20066;-84
2022/06/06 04:51:29;;;;;;;12.80;5.07;;;14.20;83.70;;;;;;4111292;28;20026;-83
2022/06/06 04:53:32;;;;;;;11.45;5.75;;;14.30;83.60;;;;;;4112868;28;20201;-83
2022/06/06 04:55:36;;;;;;;7.78;5.25;;;14.30;83.90;;;;;;4111556;28;20106;-82
2022/06/06 04:57:42;;;;;;;15.45;6.10;;;14.30;83.80;;;;;;4106399;28;20165;-84
2022/06/06 04:59:44;;;;;;;19.40;6.50;;;14.30;84.10;;;;;;4110908;28;20730;-84
2022/06/06 05:01:45;;;;;;;15.30;6.10;;;14.30;83.80;;;;;;4111308;28;20027;-82
2022/06/06 05:03:46;;;;;;;13.75;5.97;;;14.30;84.00;;;;;;4110973;28;20034;-82
2022/06/06 05:06:01;;;;;;;18.02;6.53;;;14.30;83.80;;;;;;4111194;28;20125;-84
2022/06/06 05:08:13;;;;;;;12.65;5.30;;;14.40;84.00;;;;;;4106446;28;20031;-84
2022/06/06 05:10:32;;;;;;;17.73;6.43;;;14.40;83.90;;;;;;4109798;28;20026;-82
2022/06/06 05:12:45;;;;;;;18.05;6.32;;;14.40;83.80;;;;;;4112331;28;20043;-85
2022/06/06 05:15:00;;;;;;;11.07;5.90;;;14.50;83.70;;;;;;4111751;28;20045;-84
2022/06/06 05:17:20;;;;;;;14.63;5.65;;;14.50;83.50;;;;;;4109294;28;20567;-83
2022/06/06 05:19:48;;;;;;;19.30;5.95;;;14.60;83.50;;;;;;4105753;28;20039;-82
2022/06/06 05:22:06;;;;;;;14.25;6.20;;;14.60;83.80;;;;;;4108825;28;20038;-83
2022/06/06 05:24:16;;;;;;;9.93;5.50;;;14.60;83.70;;;;;;4109630;28;20094;-82
2022/06/06 05:26:35;;;;;;;13.35;6.30;;;14.70;83.50;;;;;;4112356;28;20436;-83
2022/06/06 05:29:04;;;;;;;14.98;5.47;;;14.70;83.70;;;;;;4109258;28;20058;-83
2022/06/06 05:31:17;;;;;;;15.45;6.00;;;14.70;83.60;;;;;;4110270;28;20497;-83
2022/06/06 05:33:23;;;;;;;11.88;5.50;;;14.80;83.50;;;;;;4107109;28;20801;-83
2022/06/06 05:35:51;;;;;;;14.27;6.57;;;14.80;83.30;;;;;;4110296;28;20038;-81
2022/06/06 05:37:54;;;;;;;11.00;5.88;;;14.90;83.40;;;;;;4107610;28;20108;-84
2022/06/06 05:40:26;;;;;;;10.93;5.55;;;14.90;83.30;;;;;;4107682;28;20035;-82
2022/06/06 05:42:48;;;;;;;12.27;6.25;;;15.00;83.40;;;;;;4105391;28;20022;-83
2022/06/06 05:44:54;;;;;;;15.02;5.82;;;15.00;83.50;;;;;;4110113;28;20034;-82
2022/06/06 05:47:00;;;;;;;10.48;5.95;;;15.00;83.10;;;;;;4109095;28;20033;-83
2022/06/06 05:49:12;;;;;;;10.30;5.70;;;15.00;83.00;;;;;;4105868;28;20042;-82
2022/06/06 05:51:38;;;;;;;10.65;5.75;;;15.10;83.10;;;;;;4106504;28;20027;-81
2022/06/06 05:53:52;;;;;;;11.30;5.60;;;15.10;83.00;;;;;;4111176;28;20544;-82
2022/06/06 05:55:53;;;;;;;;;;;15.10;82.80;;;;;;4111490;28;20030;-82
2022/06/06 05:58:04;;;;;;;11.30;5.55;;;15.20;83.20;;;;;;4105638;28;19918;-81
2022/06/06 06:00:16;;;;;;;10.73;5.70;;;15.20;82.50;;;;;;4108353;28;20035;-82
2022/06/06 06:02:30;;;;;;;9.82;6.32;;;15.20;82.60;;;;;;4107153;28;20062;-82
2022/06/06 06:04:39;;;;;;;8.95;5.47;;;15.20;82.80;;;;;;4109158;28;20142;-82
2022/06/06 06:07:05;;;;;;;9.93;5.43;;;15.30;82.70;;;;;;4108510;28;20428;-84
2022/06/06 06:09:18;;;;;;;8.80;4.90;;;15.40;82.80;;;;;;4106199;28;20022;-81
2022/06/06 06:11:47;;;;;;;7.80;5.18;;;15.30;82.60;;;;;;4101965;28;20035;-82
2022/06/06 06:13:57;;;;;;;9.88;4.80;;;15.30;82.90;;;;;;4109642;28;21368;-82
2022/06/06 06:16:02;;;;;;;7.35;4.57;;;15.30;82.60;;;;;;4107935;28;20050;-80
2022/06/06 06:18:22;;;;;;;7.40;4.07;;;15.40;82.60;;;;;;4099027;28;20046;-82
2022/06/06 06:20:28;;;;;;;6.03;3.50;;;15.40;82.70;;;;;;4102968;28;20035;-81
2022/06/06 06:22:36;;;;;;;4.60;2.63;;;15.40;82.60;;;;;;4106204;28;20030;-81
2022/06/06 06:24:42;;;;;;;4.93;3.20;;;15.40;82.70;;;;;;4120685;28;22328;-83
2022/06/06 06:26:43;;;;;;;6.95;3.38;;;15.50;82.60;;;;;;4111363;28;20038;-81
2022/06/06 06:28:47;;;;;;;5.97;3.00;;;15.50;82.50;;;;;;4107107;28;20061;-82
2022/06/06 06:31:29;;;;;;;4.82;3.05;;;15.50;82.60;;;;;;4094909;28;20027;-83
2022/06/06 06:33:54;;;;;;;5.18;3.25;;;15.50;82.90;;;;;;4078282;28;20054;-82
2022/06/06 06:36:25;;;;;;;7.72;3.67;;;15.60;82.50;;;;;;4105541;28;20138;-82
2022/06/06 06:38:51;;;;;;;5.50;3.63;;;15.60;82.40;;;;;;4100426;28;20050;-82
2022/06/06 06:41:10;;;;;;;3.72;2.70;;;15.60;82.30;;;;;;4117197;28;20522;-82
2022/06/06 06:43:37;;;;;;;1.70;1.60;;;15.60;82.40;;;;;;4098722;28;20023;-82
2022/06/06 06:45:56;;;;;;;2.80;1.30;;;15.60;82.10;;;;;;4111767;28;20412;-83
2022/06/06 06:48:07;;;;;;;2.22;1.30;;;15.60;82.10;;;;;;4116550;28;20065;-80
2022/06/06 06:50:22;;;;;;;1.23;1.13;;;15.70;82.00;;;;;;4112440;28;20508;-83
2022/06/06 06:52:50;;;;;;;2.10;0.90;;;15.70;81.90;;;;;;4112732;28;20038;-80
2022/06/06 06:54:58;;;;;;;1.55;0.90;;;15.70;81.60;;;;;;4114092;28;20023;-82
2022/06/06 06:57:19;;;;;;;1.30;0.82;;;15.70;81.20;;;;;;4094785;28;20061;-83
2022/06/06 06:59:39;;;;;;;0.98;0.77;;;15.70;81.10;;;;;;4109286;28;22677;-83
2022/06/06 07:10:36;;;;;;;1.17;0.82;;;15.70;80.50;;;;;;4102648;28;20050;-82
2022/06/06 07:12:54;;;;;;;1.35;0.70;;;15.70;80.30;;;;;;4110355;28;20219;-84
2022/06/06 07:15:06;;;;;;;1.30;0.90;;;15.70;80.40;;;;;;4109889;28;20535;-81
2022/06/06 07:17:10;;;;;;;1.83;1.20;;;15.70;80.50;;;;;;4109367;28;20035;-82
2022/06/06 07:19:44;;;;;;;4.63;0.60;;;15.70;80.40;;;;;;4105536;28;20685;-81
2022/06/06 07:22:06;;;;;;;2.50;0.82;;;15.70;80.30;;;;;;4106771;28;20054;-83
2022/06/06 07:24:28;;;;;;;0.95;0.80;;;15.80;80.30;;;;;;4104793;28;20043;-81
2022/06/06 07:26:52;;;;;;;1.40;0.70;;;15.80;80.30;;;;;;4106539;28;20033;-84
2022/06/06 07:29:15;;;;;;;1.58;0.95;;;15.80;80.30;;;;;;4103803;28;20050;-81
2022/06/06 07:31:51;;;;;;;2.25;0.80;;;15.90;80.20;;;;;;4106753;28;20035;-83
2022/06/06 07:34:06;;;;;;;0.90;0.80;;;15.90;80.10;;;;;;4106657;28;20027;-83
2022/06/06 07:36:15;;;;;;;0.98;0.70;;;15.90;79.90;;;;;;4108099;28;20042;-82
2022/06/06 07:38:41;;;;;;;1.05;0.70;;;15.90;79.90;;;;;;4107867;28;20034;-84
2022/06/06 07:41:03;;;;;;;1.83;0.90;;;16.00;79.80;;;;;;4107126;28;20043;-83
2022/06/06 07:43:31;;;;;;;2.10;0.52;;;16.00;79.90;;;;;;4106112;28;21496;-82
2022/06/06 07:45:38;;;;;;;0.90;0.80;;;16.00;79.90;;;;;;4090933;28;20099;-83
2022/06/06 07:47:49;;;;;;;1.20;0.80;;;16.00;79.90;;;;;;4107950;28;20031;-82
2022/06/06 07:50:16;;;;;;;2.40;0.85;;;16.10;80.30;;;;;;4110131;28;20035;-82
2022/06/06 07:52:30;;;;;;;1.60;0.60;;;16.20;80.40;;;;;;4108127;28;20066;-83
2022/06/06 07:54:57;;;;;;;4.15;0.75;;;16.20;80.70;;;;;;4093297;28;20058;-83
2022/06/06 07:57:32;;;;;;;3.38;0.60;;;16.30;81.40;;;;;;4110638;28;20127;-82
2022/06/06 07:59:58;;;;;;;1.35;0.70;;;16.40;81.80;;;;;;4110860;28;20239;-83
2022/06/06 08:02:32;;;;;;;1.25;0.85;;;16.50;82.20;;;;;;4109524;28;20442;-81
2022/06/06 08:05:05;;;;;;;2.20;0.63;;;16.70;82.00;;;;;;4106739;28;20033;-83
2022/06/06 08:07:37;;;;;;;1.33;0.52;;;16.80;81.80;;;;;;4112657;28;20035;-83
2022/06/06 08:09:58;;;;;;;1.80;0.68;;;16.90;81.20;;;;;;4109806;28;20038;-82
2022/06/06 08:12:24;;;;;;;2.33;0.63;;;17.10;80.00;;;;;;4111600;28;20037;-83
2022/06/06 08:14:46;;;;;;;2.22;0.60;;;17.10;79.10;;;;;;4108440;28;20035;-83
2022/06/06 08:17:14;;;;;;;0.90;0.60;;;17.20;78.40;;;;;;4106746;28;20034;-83
2022/06/06 08:19:30;;;;;;;2.28;0.55;;;17.20;77.40;;;;;;4111094;28;20038;-82
2022/06/06 08:21:46;;;;;;;1.80;0.60;;;17.20;77.00;;;;;;4109503;28;20038;-82
2022/06/06 08:23:51;;;;;;;2.00;0.70;;;17.30;76.30;;;;;;4112080;28;20019;-82
2022/06/06 08:25:55;;;;;;;3.22;0.73;;;17.30;76.20;;;;;;4106167;28;20026;-84
2022/06/06 08:27:57;;;;;;;6.13;1.15;;;17.30;76.00;;;;;;4114526;28;20061;-83
2022/06/06 08:29:59;;;;;;;2.63;0.60;;;17.30;76.00;;;;;;4112130;28;20154;-83
2022/06/06 08:32:00;;;;;;;0.95;0.80;;;17.40;76.20;;;;;;4112419;28;20527;-83
2022/06/06 08:34:01;;;;;;;1.38;1.10;;;17.40;76.10;;;;;;4112464;28;20027;-83
2022/06/06 08:36:14;;;;;;;3.05;1.10;;;17.40;75.90;;;;;;4093567;28;20858;-82
2022/06/06 08:38:35;;;;;;;1.90;1.10;;;17.50;75.60;;;;;;4108232;28;20113;-83
2022/06/06 08:41:13;;;;;;;2.65;1.70;;;17.50;75.30;;;;;;4111254;28;20035;-83
2022/06/06 08:44:00;;;;;;;2.70;1.67;;;17.50;74.90;;;;;;4068391;28;20050;-83
2022/06/06 08:46:21;;;;;;;4.43;2.00;;;17.60;74.30;;;;;;4087861;28;20054;-82
2022/06/06 08:48:57;;;;;;;3.08;2.08;;;17.60;74.10;;;;;;4111147;28;20039;-82
2022/06/06 08:51:04;;;;;;;3.72;2.08;;;17.60;73.50;;;;;;4117464;28;20672;-81
2022/06/06 08:53:43;;;;;;;3.42;2.10;;;17.60;73.50;;;;;;4111214;28;20078;-80
2022/06/06 08:56:21;;;;;;;3.38;2.10;;;17.60;73.10;;;;;;4112249;28;20092;-82
2022/06/06 09:01:01;;;;;;;3.42;1.95;;;17.70;73.20;;;;;;4893456;23;20109;-84
2022/06/06 09:03:33;;;;;;;3.83;1.90;;;17.70;72.80;;;;;;4118371;28;20082;-83
2022/06/06 09:06:04;;;;;;;2.50;1.70;;;17.80;72.60;;;;;;4134793;28;20037;-83
2022/06/06 09:08:35;;;;;;;18.15;14.52;;;17.70;72.50;;;;;;4140613;28;20040;-83
2022/06/06 09:10:52;;;;;;;5.03;3.10;;;17.80;72.00;;;;;;4148152;28;20059;-83
2022/06/06 09:13:31;;;;;;;5.78;2.28;;;17.80;71.70;;;;;;4144895;28;20053;-84
2022/06/06 09:15:38;;;;;;;3.45;2.03;;;17.80;71.50;;;;;;4126073;28;20042;-82
2022/06/06 09:17:47;;;;;;;4.40;2.28;;;17.80;71.60;;;;;;4115218;28;20035;-82
2022/06/06 09:20:09;;;;;;;3.35;2.28;;;17.80;71.50;;;;;;4129269;28;20125;-83
2022/06/06 09:22:35;;;;;;;3.72;2.40;;;17.80;71.20;;;;;;4125576;28;20022;-84
2022/06/06 09:24:59;;;;;;;3.50;2.13;;;17.80;70.80;;;;;;4129820;28;20030;-83
2022/06/06 09:27:51;;;;;;;6.28;2.47;;;17.80;71.00;;;;;;4129526;28;20113;-84
2022/06/06 09:30:24;;;;;;;3.63;2.08;;;17.70;70.00;;;;;;4120625;28;20046;-84
2022/06/06 09:32:25;;;;;;;4.13;1.90;;;17.70;69.60;;;;;;4146538;28;20044;-84
2022/06/06 09:35:04;;;;;;;2.20;1.77;;;17.70;70.00;;;;;;4128704;28;20334;-83
2022/06/06 09:37:37;;;;;;;4.28;2.50;;;17.60;69.30;;;;;;4132164;28;20428;-82
2022/06/06 09:39:52;;;;;;;6.72;3.20;;;17.60;69.10;;;;;;4126480;28;20034;-84
2022/06/06 09:42:00;;;;;;;3.53;2.00;;;17.60;69.30;;;;;;4128065;28;20129;-85
2022/06/06 09:44:33;;;;;;;5.28;2.33;;;17.50;69.50;;;;;;4131729;28;20025;-83
2022/06/06 09:46:59;;;;;;;4.25;2.20;;;17.50;69.20;;;;;;4145313;28;20227;-84
2022/06/06 09:49:34;;;;;;;2.67;1.42;;;17.40;68.80;;;;;;4107198;28;20034;-84
2022/06/06 09:51:56;;;;;;;5.80;1.80;;;17.30;68.60;;;;;;4144994;28;20034;-85
2022/06/06 09:59:38;;;;;;;5.03;1.92;;;17.20;69.80;;;;;;4119751;28;20034;-85
2022/06/06 10:02:06;;;;;;;3.50;1.90;;;17.20;70.40;;;;;;4127131;28;20109;-84
2022/06/06 10:04:37;;;;;;;2.28;1.70;;;17.20;70.50;;;;;;4142555;28;20075;-84
2022/06/06 10:07:03;;;;;;;3.60;1.15;;;17.20;70.80;;;;;;4123129;28;20022;-84
2022/06/06 10:09:22;;;;;;;2.33;1.55;;;17.20;70.90;;;;;;4141071;28;20030;-85
2022/06/06 10:11:48;;;;;;;1.85;1.20;;;17.20;71.00;;;;;;4137631;28;20479;-84
2022/06/06 10:14:14;;;;;;;2.05;1.20;;;17.20;70.70;;;;;;4112330;28;20392;-85
2022/06/06 10:16:36;;;;;;;4.68;1.45;;;17.30;70.30;;;;;;4126101;28;20022;-83
2022/06/06 10:18:43;;;;;;;1.50;1.25;;;17.20;70.10;;;;;;4127632;28;20710;-83
2022/06/06 10:20:47;;;;;;;2.05;0.98;;;17.20;69.90;;;;;;4139133;28;20129;-85
2022/06/06 10:22:58;;;;;;;;;;;17.20;70.10;;;;;;4124041;28;20530;-84
2022/06/06 10:25:26;;;;;;;3.70;1.20;;;17.10;70.10;;;;;;4140155;28;19989;-86
2022/06/06 10:27:48;;;;;;;1.83;1.02;;;17.10;70.20;;;;;;4139702;28;20056;-87
2022/06/06 10:30:13;;;;;;;2.53;1.25;;;17.10;70.40;;;;;;4127556;28;20029;-84
2022/06/06 10:32:25;;;;;;;4.05;1.17;;;17.00;70.50;;;;;;4140567;28;20061;-84
2022/06/06 10:35:02;;;;;;;1.98;1.23;;;17.00;70.80;;;;;;4141985;28;20061;-83
2022/06/06 10:37:47;;;;;;;2.50;1.73;;;16.90;71.10;;;;;;4120092;28;20046;-85
2022/06/06 10:40:19;;;;;;;3.08;1.73;;;16.80;71.20;;;;;;4138307;28;20645;-84
2022/06/06 10:42:42;;;;;;;3.50;2.22;;;16.80;71.30;;;;;;4119371;28;20026;-86
2022/06/06 10:45:04;;;;;;;4.40;2.40;;;16.80;71.40;;;;;;4123500;28;20026;-83
2022/06/06 10:47:20;;;;;;;4.40;2.40;;;16.80;71.70;;;;;;4135001;28;20479;-83
2022/06/06 10:49:39;;;;;;;6.03;2.80;;;16.70;71.90;;;;;;4116593;28;20514;-83
2022/06/06 10:52:21;;;;;;;5.90;2.97;;;16.70;72.20;;;;;;4142000;28;20097;-84
2022/06/06 10:54:59;;;;;;;5.68;3.30;;;16.70;72.70;;;;;;4066708;28;20040;-86
2022/06/06 10:57:37;;;;;;;4.72;3.17;;;16.70;72.90;;;;;;4138062;28;20060;-83
2022/06/06 11:00:14;;;;;;;8.18;3.42;;;16.80;73.70;;;;;;4136860;28;20105;-83
2022/06/06 11:02:53;;;;;;;6.60;3.55;;;16.80;73.90;;;;;;4121319;28;20045;-82
2022/06/06 11:05:15;;;;;;;6.97;4.15;;;16.90;74.10;;;;;;4135978;28;20069;-83
2022/06/06 11:07:49;;;;;;;5.95;3.63;;;17.00;74.20;;;;;;4120319;28;20033;-84
2022/06/06 11:10:16;;;;;;;6.35;3.72;;;17.10;73.90;;;;;;4127828;28;20662;-84
2022/06/06 11:12:49;;;;;;;6.78;3.80;;;17.20;73.70;;;;;;4091640;28;20038;-86
2022/06/06 11:14:52;;;;;;;6.90;4.07;;;17.30;73.70;;;;;;4117114;28;20034;-84
2022/06/06 11:17:25;;;;;;;6.38;3.83;;;17.30;73.30;;;;;;4133781;28;20061;-85
2022/06/06 11:19:47;;;;;;;8.13;3.47;;;17.40;73.30;;;;;;4135002;28;20041;-86
2022/06/06 11:21:57;;;;;;;5.50;3.05;;;17.50;71.90;;;;;;4136646;28;20169;-85
2022/06/06 11:24:30;;;;;;;5.00;2.88;;;17.60;72.50;;;;;;4109770;28;20026;-86
2022/06/06 11:26:58;;;;;;;9.23;3.60;;;17.70;70.00;;;;;;4111412;28;20046;-86
2022/06/06 11:29:37;;;;;;;8.02;3.00;;;17.80;70.30;;;;;;4113107;28;20046;-85
2022/06/06 11:32:03;;;;;;;8.85;3.28;;;17.90;69.90;;;;;;4132987;28;20028;-85
2022/06/06 11:34:59;;;;;;;4.03;2.30;;;18.00;68.70;;;;;;4090272;28;20427;-85
2022/06/06 11:37:52;;;;;;;4.20;2.60;;;18.10;68.40;;;;;;4118162;28;20053;-83
2022/06/06 11:40:31;;;;;;;6.03;2.75;;;18.20;67.70;;;;;;4119411;28;20053;-86
2022/06/06 11:42:57;;;;;;;4.78;2.17;;;18.40;65.50;;;;;;4097457;28;20117;-85
2022/06/06 11:45:39;;;;;;;5.00;2.70;;;18.50;64.60;;;;;;4105066;28;20019;-87
2022/06/06 11:48:00;;;;;;;6.03;2.47;;;18.50;64.40;;;;;;4117871;28;20769;-88
2022/06/06 11:50:27;;;;;;;7.38;2.97;;;18.60;64.20;;;;;;4117600;28;20042;-86
2022/06/06 11:52:59;;;;;;;6.70;2.70;;;18.70;62.90;;;;;;4133147;28;20637;-85
2022/06/06 11:55:33;;;;;;;6.00;2.22;;;18.70;63.30;;;;;;4113798;28;20129;-85
2022/06/06 11:57:51;;;;;;;4.93;2.47;;;18.90;62.30;;;;;;4117819;28;20057;-86
2022/06/06 12:00:36;;;;;;;3.85;2.28;;;18.90;61.50;;;;;;4116370;28;20038;-85
2022/06/06 12:03:29;;;;;;;7.90;2.95;;;19.00;61.10;;;;;;4119546;28;20035;-86
2022/06/06 12:06:12;;;;;;;7.50;2.35;;;19.10;60.70;;;;;;4114416;28;20038;-85
2022/06/06 12:08:47;;;;;;;5.82;2.40;;;19.20;60.50;;;;;;4102212;28;20035;-87
2022/06/06 12:11:37;;;;;;;6.90;2.35;;;19.30;60.50;;;;;;4128769;28;20073;-85
2022/06/06 12:14:19;;;;;;;6.18;2.70;;;19.40;60.50;;;;;;4135390;28;21943;-86